TimeMDT,TemperatureF,Dew PointF,Humidity,Sea Level PressureIn,VisibilityMPH,Wind Direction,Wind SpeedMPH,Gust SpeedMPH,PrecipitationIn,Events,Conditions,WindDirDegrees,DateUTC
12:52 AM,68.0,51.1,55,29.87,10.0,NW,8.1,-,N/A,,Clear,310,2013-08-21 06:52:00
1:52 AM,69.1,50.0,51,29.88,10.0,NW,5.8,-,N/A,,Clear,310,2013-08-21 07:52:00
2:52 AM,70.0,48.9,47,29.88,10.0,NNW,9.2,-,N/A,,Clear,330,2013-08-21 08:52:00
3:52 AM,66.9,51.1,57,29.89,10.0,NW,10.4,-,N/A,,Clear,320,2013-08-21 09:52:00
4:52 AM,68.0,48.9,50,29.89,10.0,WNW,10.4,-,N/A,,Clear,300,2013-08-21 10:52:00
5:52 AM,69.1,48.9,49,29.90,10.0,NNW,8.1,-,N/A,,Clear,340,2013-08-21 11:52:00
6:52 AM,69.1,51.1,53,29.92,10.0,NNW,8.1,24.2,N/A,,Clear,340,2013-08-21 12:52:00
7:52 AM,72.0,53.1,51,29.94,10.0,Calm,Calm,-,N/A,,Clear,0,2013-08-21 13:52:00
8:52 AM,75.0,51.1,43,29.96,10.0,Calm,Calm,-,N/A,,Clear,0,2013-08-21 14:52:00
9:52 AM,75.0,54.0,48,29.97,10.0,ESE,3.5,-,N/A,,Clear,110,2013-08-21 15:52:00
10:52 AM,73.9,55.0,52,29.97,10.0,ENE,6.9,-,N/A,,Mostly Cloudy,60,2013-08-21 16:52:00
11:52 AM,75.0,55.0,50,30.00,10.0,ENE,3.5,-,N/A,,Partly Cloudy,70,2013-08-21 17:52:00
12:52 PM,73.0,57.0,57,30.02,10.0,SSE,5.8,-,N/A,,Clear,150,2013-08-21 18:52:00
1:52 PM,75.9,57.9,54,30.03,10.0,SSE,5.8,-,N/A,,Clear,150,2013-08-21 19:52:00
2:52 PM,81.0,54.0,39,29.99,10.0,SE,10.4,-,N/A,,Clear,130,2013-08-21 20:52:00
3:52 PM,81.0,55.9,42,29.99,10.0,South,10.4,-,N/A,,Clear,170,2013-08-21 21:52:00
4:52 PM,79.0,55.0,44,29.99,10.0,South,5.8,-,N/A,,Clear,170,2013-08-21 22:52:00
5:52 PM,77.0,55.9,48,30.00,10.0,SSE,8.1,-,N/A,,Clear,150,2013-08-21 23:52:00
6:52 PM,73.0,57.0,57,30.01,10.0,SSE,8.1,-,N/A,,Clear,150,2013-08-22 00:52:00
7:52 PM,70.0,57.9,65,30.01,10.0,SW,5.8,-,N/A,,Clear,220,2013-08-22 01:52:00
8:52 PM,66.9,57.0,70,30.03,10.0,SSW,6.9,-,N/A,,Clear,210,2013-08-22 02:52:00
9:52 PM,66.0,57.0,73,30.04,10.0,SW,4.6,-,N/A,,Clear,220,2013-08-22 03:52:00
10:52 PM,64.0,55.9,75,30.05,10.0,SSW,6.9,-,N/A,,Clear,210,2013-08-22 04:52:00
11:52 PM,63.0,55.0,75,30.06,10.0,Calm,Calm,-,N/A,,Clear,0,2013-08-22 05:52:00